Airfield :
LOGIN :

Register | Disclaimer

   EN    FR    IT 

 










Legend :    VFR   Marginal VFR   IFR   Intensive IFR   Very Intensive IFR
Visi :
Ceiling :
>= 8 km
>= 3000ft
5 to 8 km
1000 to 3000 ft
1500m to 5 km
500 to 1000 ft
800 to 1500m
200 to 500 ft
< 800m
< 200 ft
Symbols :   Thunderstorms  Fog  Heavy snow  Heavy precipitations  Wind > 20 kt
SIGMETs :     Misc.  Thunderstorms  Icing  Turbulence  Mountain Waves  Volcanic Ashes






- Airport Elevation : 2555 ft
- IATA code : ADJ


OJAM - Marka Int.

CURRENT METAR :
  • 202300Z 00000KT 7000 NSC 20/13 Q1018 NOSIG

EXPIRED METARs :
  • 202200Z 00000KT 7000 NSC 20/11 Q1019 NOSIG
  • 202100Z 00000KT 6000 NSC 20/12 Q1019 NOSIG

TAF TAF OJAM
Valid from the 20 at 18:00 until the 22 at 00:00 UTC


201643Z 2018/2124 26008KT 5000 HZ NSC
PROB40
TEMPO 2100/2106 VRB01KT 3000 FU
TEMPO 2112/2118 33010KT
OJAC FIR / Asia



MET'MAP, your aeronautical weather chart ! - Copyright ORBIFLY December 2007 - Disclaimer

ORBIFLY MET'MAP TEAM :

Programming & Development : Alexandra Zaïnal
Concept & original design : Baudouin d'Aumeries
Assistance for programming : Marc-Olivier Méhu
Technical & hardware support : Manuel Goepfert

Contact : metmap@orbifly.com




SOURCES & CREDITS :

   NOAA